Lakeshore, Florida
Current Conditions -  °F | °C
As of 5:55 PM on Thursday 23 Oct 2014 (Local Time) from KBOW Reporting Station
Clear Clear  
Wind Chill: 79°   Ceiling: Unl
Heat Index: 79°   Visibility: 10mi
Dew Point: 55°   Wind: 9mph
Humidity: 44%   Direction: 40°NE
Pressure: 29.93"   Gusts: NA
Location:  27.8566°N, 81.4126°W
Report Text: KBOW 232155Z AUTO 04008KT 10SM CLR 26/13 A2993 RMK AO2
Loading
Personal Weather Stations






























Interactive Weather Map
Tropical Storm Tracking
New forecast layout! Learn more

10-Day Weather Forecast

Advertisements
Track Severe Weather on mobile